Terminal Aerodrome Forecast
Issued by NWS Flagstaff, AZ

Home | Current Version | Previous Version | Text Only | Print | Product List | Glossary On
Versions: 1 2 3 4 5 6 7 8 9 10 11 12 13 14 15 16 17 18 19 20 21
664
FTUS45 KFGZ 251735
TAFFLG
TAF
KFLG 251735Z 2518/2618 23011G18KT P6SM FEW040 SCT120
     FM252000 23015G23KT P6SM BKN040 BKN080
      TEMPO 2522/2601 4SM -SHRASN BKN030
     FM260200 VRB05KT P6SM FEW040=

USA.gov is the U.S. government's official web portal to all federal, state and local government web resources and services.